sensor_id;sensor_type;location;lat;lon;timestamp;P1;durP1;ratioP1;P2;durP2;ratioP2
9489;SDS011;4783;42.734;23.288;2023-03-14T08:36:00;29.65;;;17.67;;
9489;SDS011;4783;42.734;23.288;2023-03-14T08:38:25;26.50;;;16.25;;
9489;SDS011;4783;42.734;23.288;2023-03-14T08:40:57;26.08;;;15.82;;
9489;SDS011;4783;42.734;23.288;2023-03-14T08:43:23;29.02;;;17.45;;
9489;SDS011;4783;42.734;23.288;2023-03-14T08:49:13;15.10;;;9.52;;
9489;SDS011;4783;42.734;23.288;2023-03-14T08:51:39;13.90;;;9.23;;
9489;SDS011;4783;42.734;23.288;2023-03-14T08:54:04;19.00;;;9.88;;
9489;SDS011;4783;42.734;23.288;2023-03-14T08:56:30;14.00;;;9.77;;
9489;SDS011;4783;42.734;23.288;2023-03-14T08:58:55;13.38;;;9.95;;
9489;SDS011;4783;42.734;23.288;2023-03-14T09:01:20;11.32;;;9.55;;
9489;SDS011;4783;42.734;23.288;2023-03-14T09:03:49;11.48;;;8.68;;
9489;SDS011;4783;42.734;23.288;2023-03-14T09:06:14;15.95;;;8.98;;
9489;SDS011;4783;42.734;23.288;2023-03-14T09:08:42;17.85;;;9.38;;
9489;SDS011;4783;42.734;23.288;2023-03-14T09:11:08;14.65;;;9.60;;
9489;SDS011;4783;42.734;23.288;2023-03-14T09:13:33;13.82;;;8.93;;
9489;SDS011;4783;42.734;23.288;2023-03-14T09:15:59;10.95;;;9.25;;
9489;SDS011;4783;42.734;23.288;2023-03-14T09:18:24;13.38;;;9.18;;
9489;SDS011;4783;42.734;23.288;2023-03-14T09:20:49;18.00;;;10.60;;
9489;SDS011;4783;42.734;23.288;2023-03-14T09:23:15;21.50;;;9.65;;
9489;SDS011;4783;42.734;23.288;2023-03-14T09:25:40;12.25;;;8.45;;
9489;SDS011;4783;42.734;23.288;2023-03-14T09:28:05;12.15;;;8.50;;
9489;SDS011;4783;42.734;23.288;2023-03-14T09:30:31;16.60;;;9.23;;
9489;SDS011;4783;42.734;23.288;2023-03-14T09:32:56;15.85;;;8.82;;
9489;SDS011;4783;42.734;23.288;2023-03-14T09:35:22;12.02;;;8.60;;
9489;SDS011;4783;42.734;23.288;2023-03-14T09:37:47;17.10;;;7.95;;
9489;SDS011;4783;42.734;23.288;2023-03-14T09:40:14;18.75;;;9.40;;
9489;SDS011;4783;42.734;23.288;2023-03-14T09:42:40;14.63;;;9.15;;
9489;SDS011;4783;42.734;23.288;2023-03-14T09:45:06;11.70;;;8.25;;
9489;SDS011;4783;42.734;23.288;2023-03-14T09:47:35;12.05;;;8.13;;
9489;SDS011;4783;42.734;23.288;2023-03-14T09:50:00;14.18;;;8.05;;
9489;SDS011;4783;42.734;23.288;2023-03-14T09:52:35;14.50;;;8.32;;
9489;SDS011;4783;42.734;23.288;2023-03-14T09:55:05;17.35;;;7.45;;
9489;SDS011;4783;42.734;23.288;2023-03-14T09:57:33;9.80;;;7.72;;
9489;SDS011;4783;42.734;23.288;2023-03-14T10:00:32;9.23;;;8.00;;
9489;SDS011;4783;42.734;23.288;2023-03-14T10:02:52;9.20;;;7.43;;
9489;SDS011;4783;42.734;23.288;2023-03-14T10:05:19;12.10;;;7.10;;
9489;SDS011;4783;42.734;23.288;2023-03-14T10:07:45;9.52;;;6.80;;
9489;SDS011;4783;42.734;23.288;2023-03-14T10:10:11;15.73;;;7.50;;
9489;SDS011;4783;42.734;23.288;2023-03-14T10:12:37;9.27;;;7.18;;
9489;SDS011;4783;42.734;23.288;2023-03-14T10:15:08;10.68;;;8.00;;
9489;SDS011;4783;42.734;23.288;2023-03-14T10:17:41;13.07;;;7.45;;
9489;SDS011;4783;42.734;23.288;2023-03-14T10:20:14;14.95;;;6.95;;
9489;SDS011;4783;42.734;23.288;2023-03-14T10:22:52;8.25;;;6.97;;
9489;SDS011;4783;42.734;23.288;2023-03-14T10:25:28;9.00;;;7.07;;
9489;SDS011;4783;42.734;23.288;2023-03-14T10:27:54;14.15;;;8.57;;
9489;SDS011;4783;42.734;23.288;2023-03-14T10:33:19;12.82;;;7.30;;
9489;SDS011;4783;42.734;23.288;2023-03-14T10:35:45;8.70;;;7.03;;
9489;SDS011;4783;42.734;23.288;2023-03-14T10:38:16;20.42;;;7.15;;
9489;SDS011;4783;42.734;23.288;2023-03-14T10:40:46;9.50;;;6.07;;
9489;SDS011;4783;42.734;23.288;2023-03-14T10:43:15;8.65;;;5.65;;
9489;SDS011;4783;42.734;23.288;2023-03-14T10:45:42;11.23;;;6.03;;
9489;SDS011;4783;42.734;23.288;2023-03-14T10:50:47;13.27;;;7.70;;
9489;SDS011;4783;42.734;23.288;2023-03-14T10:53:16;10.15;;;7.75;;
9489;SDS011;4783;42.734;23.288;2023-03-14T10:55:42;14.10;;;7.90;;
9489;SDS011;4783;42.734;23.288;2023-03-14T10:58:24;12.82;;;7.85;;
9489;SDS011;4783;42.734;23.288;2023-03-14T11:00:51;11.88;;;7.82;;
9489;SDS011;4783;42.734;23.288;2023-03-14T11:03:18;11.02;;;7.32;;
9489;SDS011;4783;42.734;23.288;2023-03-14T11:10:45;11.02;;;7.13;;
9489;SDS011;4783;42.734;23.288;2023-03-14T11:13:25;10.82;;;7.00;;
9489;SDS011;4783;42.734;23.288;2023-03-14T11:20:59;8.63;;;6.43;;
9489;SDS011;4783;42.734;23.288;2023-03-14T11:23:31;9.35;;;6.18;;
9489;SDS011;4783;42.734;23.288;2023-03-14T11:28:29;12.05;;;6.72;;
9489;SDS011;4783;42.734;23.288;2023-03-14T11:31:39;7.72;;;6.20;;
9489;SDS011;4783;42.734;23.288;2023-03-14T11:34:01;9.32;;;6.13;;
9489;SDS011;4783;42.734;23.288;2023-03-14T11:39:03;22.25;;;5.63;;
9489;SDS011;4783;42.734;23.288;2023-03-14T11:41:33;9.02;;;4.90;;
9489;SDS011;4783;42.734;23.288;2023-03-14T11:44:02;12.32;;;5.25;;
9489;SDS011;4783;42.734;23.288;2023-03-14T11:46:31;8.75;;;5.32;;
9489;SDS011;4783;42.734;23.288;2023-03-14T11:51:28;9.32;;;4.63;;
9489;SDS011;4783;42.734;23.288;2023-03-14T11:53:56;10.80;;;5.13;;
9489;SDS011;4783;42.734;23.288;2023-03-14T11:59:04;9.85;;;5.43;;
9489;SDS011;4783;42.734;23.288;2023-03-14T12:07:08;12.32;;;6.45;;
9489;SDS011;4783;42.734;23.288;2023-03-14T12:09:37;13.13;;;5.53;;
9489;SDS011;4783;42.734;23.288;2023-03-14T12:12:03;9.68;;;5.13;;
9489;SDS011;4783;42.734;23.288;2023-03-14T12:14:31;9.80;;;5.32;;
9489;SDS011;4783;42.734;23.288;2023-03-14T12:17:07;8.10;;;5.97;;
9489;SDS011;4783;42.734;23.288;2023-03-14T12:19:38;16.85;;;5.50;;
9489;SDS011;4783;42.734;23.288;2023-03-14T12:22:18;10.23;;;5.00;;
9489;SDS011;4783;42.734;23.288;2023-03-14T12:24:48;7.60;;;4.10;;
9489;SDS011;4783;42.734;23.288;2023-03-14T12:30:00;6.03;;;4.10;;
9489;SDS011;4783;42.734;23.288;2023-03-14T12:32:25;6.47;;;4.30;;
9489;SDS011;4783;42.734;23.288;2023-03-14T12:34:51;12.07;;;5.00;;
9489;SDS011;4783;42.734;23.288;2023-03-14T12:39:56;6.18;;;4.50;;
9489;SDS011;4783;42.734;23.288;2023-03-14T12:42:36;7.82;;;3.58;;
9489;SDS011;4783;42.734;23.288;2023-03-14T12:50:07;10.13;;;4.20;;
9489;SDS011;4783;42.734;23.288;2023-03-14T12:55:21;12.60;;;8.02;;
9489;SDS011;4783;42.734;23.288;2023-03-14T12:57:55;17.67;;;10.88;;
9489;SDS011;4783;42.734;23.288;2023-03-14T13:00:23;8.50;;;4.18;;
9489;SDS011;4783;42.734;23.288;2023-03-14T13:02:55;7.53;;;4.15;;
9489;SDS011;4783;42.734;23.288;2023-03-14T13:05:25;8.40;;;3.70;;
9489;SDS011;4783;42.734;23.288;2023-03-14T13:10:22;7.25;;;3.30;;
9489;SDS011;4783;42.734;23.288;2023-03-14T13:15:21;5.03;;;2.90;;
9489;SDS011;4783;42.734;23.288;2023-03-14T13:17:48;4.60;;;2.83;;
9489;SDS011;4783;42.734;23.288;2023-03-14T13:20:19;6.75;;;5.40;;
9489;SDS011;4783;42.734;23.288;2023-03-14T13:22:47;8.65;;;2.88;;
9489;SDS011;4783;42.734;23.288;2023-03-14T13:25:13;12.73;;;3.50;;
9489;SDS011;4783;42.734;23.288;2023-03-14T13:27:38;6.82;;;3.28;;
9489;SDS011;4783;42.734;23.288;2023-03-14T13:30:14;5.85;;;2.60;;
9489;SDS011;4783;42.734;23.288;2023-03-14T13:32:41;11.90;;;3.42;;
9489;SDS011;4783;42.734;23.288;2023-03-14T13:35:21;9.88;;;3.10;;
9489;SDS011;4783;42.734;23.288;2023-03-14T13:37:47;6.95;;;2.92;;
9489;SDS011;4783;42.734;23.288;2023-03-14T13:40:19;5.30;;;2.67;;
9489;SDS011;4783;42.734;23.288;2023-03-14T13:42:44;5.65;;;2.55;;
9489;SDS011;4783;42.734;23.288;2023-03-14T13:45:12;4.50;;;2.40;;
9489;SDS011;4783;42.734;23.288;2023-03-14T13:47:37;5.70;;;2.60;;
9489;SDS011;4783;42.734;23.288;2023-03-14T13:50:03;6.55;;;2.45;;
9489;SDS011;4783;42.734;23.288;2023-03-14T13:52:30;4.72;;;2.40;;
9489;SDS011;4783;42.734;23.288;2023-03-14T13:54:56;4.82;;;2.35;;
9489;SDS011;4783;42.734;23.288;2023-03-14T13:57:21;6.78;;;2.15;;
9489;SDS011;4783;42.734;23.288;2023-03-14T14:00:00;11.77;;;2.90;;
9489;SDS011;4783;42.734;23.288;2023-03-14T14:02:26;5.00;;;2.60;;
9489;SDS011;4783;42.734;23.288;2023-03-14T14:04:52;4.75;;;2.25;;
9489;SDS011;4783;42.734;23.288;2023-03-14T14:07:17;4.93;;;2.45;;
9489;SDS011;4783;42.734;23.288;2023-03-14T14:09:47;7.28;;;3.70;;
9489;SDS011;4783;42.734;23.288;2023-03-14T14:12:14;9.95;;;5.15;;
9489;SDS011;4783;42.734;23.288;2023-03-14T14:14:46;5.15;;;3.13;;
9489;SDS011;4783;42.734;23.288;2023-03-14T14:17:13;4.75;;;2.70;;
9489;SDS011;4783;42.734;23.288;2023-03-14T14:19:39;4.53;;;3.38;;
9489;SDS011;4783;42.734;23.288;2023-03-14T14:22:06;7.25;;;5.03;;
9489;SDS011;4783;42.734;23.288;2023-03-14T14:24:34;5.47;;;3.10;;
9489;SDS011;4783;42.734;23.288;2023-03-14T14:27:02;4.82;;;3.20;;
9489;SDS011;4783;42.734;23.288;2023-03-14T14:29:33;6.35;;;4.43;;
9489;SDS011;4783;42.734;23.288;2023-03-14T14:37:23;5.93;;;2.90;;
9489;SDS011;4783;42.734;23.288;2023-03-14T14:39:50;5.20;;;3.00;;
9489;SDS011;4783;42.734;23.288;2023-03-14T14:42:16;5.47;;;2.72;;
9489;SDS011;4783;42.734;23.288;2023-03-14T14:44:42;8.88;;;2.88;;
9489;SDS011;4783;42.734;23.288;2023-03-14T14:47:11;6.53;;;3.20;;
9489;SDS011;4783;42.734;23.288;2023-03-14T14:49:37;5.28;;;2.60;;
9489;SDS011;4783;42.734;23.288;2023-03-14T14:52:04;3.40;;;2.78;;
9489;SDS011;4783;42.734;23.288;2023-03-14T14:54:43;3.85;;;2.60;;
9489;SDS011;4783;42.734;23.288;2023-03-14T14:57:16;11.82;;;3.20;;
9489;SDS011;4783;42.734;23.288;2023-03-14T14:59:42;12.05;;;3.78;;
9489;SDS011;4783;42.734;23.288;2023-03-14T15:02:09;12.63;;;3.13;;
9489;SDS011;4783;42.734;23.288;2023-03-14T15:04:41;5.65;;;2.78;;
9489;SDS011;4783;42.734;23.288;2023-03-14T15:07:07;4.20;;;2.47;;
9489;SDS011;4783;42.734;23.288;2023-03-14T15:09:33;11.85;;;3.30;;
9489;SDS011;4783;42.734;23.288;2023-03-14T15:11:58;7.45;;;3.20;;
9489;SDS011;4783;42.734;23.288;2023-03-14T15:14:23;6.63;;;2.72;;
9489;SDS011;4783;42.734;23.288;2023-03-14T15:16:48;4.85;;;2.60;;
9489;SDS011;4783;42.734;23.288;2023-03-14T15:19:20;5.88;;;3.17;;
9489;SDS011;4783;42.734;23.288;2023-03-14T15:21:45;10.73;;;3.70;;
9489;SDS011;4783;42.734;23.288;2023-03-14T15:24:11;5.95;;;4.45;;
9489;SDS011;4783;42.734;23.288;2023-03-14T15:26:36;8.80;;;3.80;;
9489;SDS011;4783;42.734;23.288;2023-03-14T15:29:01;10.15;;;3.95;;
9489;SDS011;4783;42.734;23.288;2023-03-14T15:31:27;11.65;;;4.13;;
9489;SDS011;4783;42.734;23.288;2023-03-14T15:33:52;10.23;;;3.78;;
9489;SDS011;4783;42.734;23.288;2023-03-14T15:36:22;11.20;;;4.05;;
9489;SDS011;4783;42.734;23.288;2023-03-14T15:38:48;10.55;;;3.80;;
9489;SDS011;4783;42.734;23.288;2023-03-14T15:41:13;8.88;;;3.60;;
